Flight Track Log - Related Links

Times and Time Zones

All times are in EDT time to prevent confusion due to time zone crossing. See the TDA18 flight status page for this flight to view local times or setup timezone preferences in your user account.

Time Position Orientation Groundspeed Altitude Reporting Facility
EDT Latitude Longitude Course Direction KTS MPH feet Rate Location/Type
Fri 10:16:47 AM 28.4167 -81.3167 90° East 93 107 400  Level Orlando TRACON
Fri 10:17:41 AM 28.4167 -81.3000 90° East 98 113 900 444 Climbing Orlando TRACON
Fri 10:18:35 AM 28.4167 -81.2667 90° East 128 147 1,200 381 Climbing Orlando TRACON
Fri 10:19:47 AM 28.4167 -81.2167 90° East 130 150 1,700 446 Climbing Orlando TRACON
Fri 10:20:36 AM 28.4333 -81.1833 60° Northeast 134 154 2,100 470 Climbing Orlando TRACON
Fri 10:21:42 AM 28.4333 -81.1333 90° East 134 154 2,600 425 Climbing Orlando TRACON
Fri 10:22:43 AM 28.4333 -81.1000 90° East 129 148 3,000 429 Climbing Orlando TRACON
Fri 10:23:48 AM 28.4167 -81.0667 120° Southeast 123 142 3,500 403 Climbing Orlando TRACON
Fri 10:24:42 AM 28.4000 -81.0333 120° Southeast 123 142 3,800 385 Climbing Orlando TRACON
Fri 10:25:37 AM 28.4000 -81.0000 90° East 122 140 4,200 417 Climbing Orlando TRACON
Fri 10:26:37 AM 28.3833 -80.9667 120° Southeast 124 143 4,600 368 Climbing Orlando TRACON
Fri 10:27:31 AM 28.3667 -80.9333 120° Southeast 127 146 4,900 276 Climbing Orlando TRACON
Fri 10:28:04 AM 28.3544 -80.9181 132° Southeast 124 143 5,000 316 Climbing Miami Center
Fri 10:29:06 AM 28.3319 -80.8858 128° Southeast 127 146 5,400 383 Climbing Miami Center
Fri 10:29:38 AM 28.3167 -80.8667 132° Southeast 129 148 5,600 339 Climbing Orlando TRACON
Fri 10:31:10 AM 28.2864 -80.8144 123° Southeast 127 146 6,100 351 Climbing Miami Center
Fri 10:32:12 AM 28.2636 -80.7819 129° Southeast 127 146 6,500 339 Climbing Miami Center
Fri 10:33:14 AM 28.2414 -80.7497 128° Southeast 128 147 6,800 242 Climbing Miami Center
Fri 10:34:16 AM 28.2175 -80.7167 129° Southeast 131 151 7,000 242 Climbing Miami Center
Fri 10:35:18 AM 28.1961 -80.6794 123° Southeast 136 157 7,300 242 Climbing Miami Center
Fri 10:36:20 AM 28.1761 -80.6414 121° Southeast 137 158 7,500 194 Climbing Miami Center
Fri 10:37:22 AM 28.1567 -80.6033 120° Southeast 138 159 7,700 242 Climbing Miami Center
Fri 10:38:24 AM 28.1328 -80.5581 121° Southeast 138 159 8,000 290 Climbing Miami Center
Fri 10:39:26 AM 28.1114 -80.5186 122° Southeast 138 159 8,300 240 Climbing Miami Center
Fri 10:40:29 AM 28.0925 -80.4822 120° Southeast 138 159 8,500 192 Climbing Miami Center
Fri 10:41:31 AM 28.0714 -80.4442 122° Southeast 140 161 8,700 194 Climbing Miami Center
Fri 10:42:33 AM 28.0519 -80.4064 120° Southeast 140 161 8,900 242 Climbing Miami Center
Fri 10:43:35 AM 28.0314 -80.3686 122° Southeast 140 161 9,200 290 Climbing Miami Center
Fri 10:44:37 AM 28.0056 -80.3242 123° Southeast 140 161 9,500 242 Climbing Miami Center
Fri 10:45:39 AM 27.9844 -80.2869 123° Southeast 140 161 9,700 242 Climbing Miami Center
Fri 10:46:41 AM 27.9628 -80.2494 123° Southeast 141 162 10,000 242 Climbing Miami Center
Fri 10:47:43 AM 27.9406 -80.2122 124° Southeast 141 162 10,200 194 Climbing Miami Center
Fri 10:48:45 AM 27.9189 -80.1753 124° Southeast 142 163 10,400 242 Climbing Miami Center
Fri 10:49:47 AM 27.8967 -80.1378 124° Southeast 142 163 10,700 290 Climbing Miami Center
Fri 10:50:49 AM 27.8692 -80.0947 126° Southeast 142 163 11,000 242 Climbing Miami Center
Fri 10:51:51 AM 27.8439 -80.0578 128° Southeast 142 163 11,200 194 Climbing Miami Center
Fri 10:52:53 AM 27.8194 -80.0211 127° Southeast 142 163 11,400 242 Climbing Miami Center
Fri 10:53:55 AM 27.7964 -79.9881 128° Southeast 141 162 11,700 242 Climbing Miami Center
Fri 10:54:57 AM 27.7711 -79.9522 129° Southeast 141 162 11,900 194 Climbing Miami Center
Fri 10:55:59 AM 27.7433 -79.9206 135° Southeast 138 159 12,100 242 Climbing Miami Center
Fri 10:57:01 AM 27.7147 -79.8900 137° Southeast 136 157 12,400 242 Climbing Miami Center
Fri 10:58:03 AM 27.6878 -79.8608 136° Southeast 132 152 12,600 242 Climbing Miami Center
Fri 10:59:05 AM 27.6606 -79.8317 136° Southeast 130 150 12,900 194 Climbing Miami Center
Fri 11:00:07 AM 27.6342 -79.8033 136° Southeast 128 147 13,000 97 Climbing Miami Center
Fri 11:01:09 AM 27.6086 -79.7761 137° Southeast 128 147 13,100 48 Climbing Miami Center
Fri 11:02:11 AM 27.5750 -79.7492 145° Southeast 140 161 13,100  Level Miami Center
Fri 11:03:14 AM 27.5408 -79.7200 143° Southeast 147 169 13,100  Level Miami Center
Fri 11:04:16 AM 27.5053 -79.6894 143° Southeast 149 171 13,100  Level Miami Center
Fri 11:05:18 AM 27.4725 -79.6550 137° Southeast 153 176 13,100  Level Miami Center
Fri 11:06:20 AM 27.4436 -79.6200 133° Southeast 148 170 13,100  Level Miami Center
Fri 11:07:22 AM 27.4142 -79.5861 134° Southeast 147 169 13,100  Level Miami Center
Fri 11:08:24 AM 27.3886 -79.5558 134° Southeast 139 160 13,100  Level Miami Center
Fri 11:09:26 AM 27.3622 -79.5242 133° Southeast 138 159 13,100  Level Miami Center
Fri 11:10:28 AM 27.3369 -79.4914 131° Southeast 135 155 13,100  Level Miami Center
Fri 11:11:30 AM 27.3097 -79.4603 135° Southeast 135 155 13,100  Level Miami Center
Fri 11:12:32 AM 27.2844 -79.4297 133° Southeast 132 152 13,100  Level Miami Center
Fri 11:13:34 AM 27.2586 -79.4000 134° Southeast 129 148 13,100  Level Miami Center
Fri 11:14:37 AM 27.2344 -79.3667 129° Southeast 131 151 13,100  Level Miami Center
Fri 11:15:39 AM 27.2278 -79.3244 100° East 140 161 13,100  Level Miami Center
Fri 11:16:41 AM 27.2206 -79.2814 101° East 141 162 13,100  Level Miami Center
Fri 11:17:43 AM 27.2092 -79.2378 106° East 140 161 13,100 -48 Level Miami Center
Fri 11:18:45 AM 27.1989 -79.1922 104° East 141 162 13,000 -194 Descending Miami Center
Fri 11:19:47 AM 27.1806 -79.1467 114° Southeast 154 177 12,700 -387 Descending Miami Center
Fri 11:20:49 AM 27.1567 -79.1033 122° Southeast 156 180 12,200 -480 Descending Miami Center
Fri 11:21:52 AM 27.1394 -79.0522 111° Southeast 165 190 11,700 -288 Descending Miami Center
Fri 11:22:54 AM 27.1225 -79.0022 111° Southeast 165 190 11,600 -48 Descending Miami Center
Fri 11:23:56 AM 27.1150 -78.9558 100° East 146 168 11,600  Level Miami Center
Fri 11:24:58 AM 27.1039 -78.9161 107° East 144 166 11,600  Level Miami Center
Fri 11:26:00 AM 27.0950 -78.8731 103° East 139 160 11,600  Level Miami Center
Fri 11:27:02 AM 27.0856 -78.8342 105° East 138 159 11,600  Level Miami Center
Fri 11:28:05 AM 27.0758 -78.7939 105° East 131 151 11,600  Level Miami Center
Fri 11:29:07 AM 27.0661 -78.7539 105° East 131 151 11,600  Level Miami Center
Fri 11:30:09 AM 27.0544 -78.7039 105° East 133 153 11,600  Level Miami Center
Fri 11:31:11 AM 27.0464 -78.6619 102° East 138 159 11,600  Level Miami Center
Fri 11:32:13 AM 27.0369 -78.6214 105° East 138 159 11,600  Level Miami Center
Fri 11:33:16 AM 27.0264 -78.5808 106° East 138 159 11,600  Level Miami Center
Fri 11:34:18 AM 27.0161 -78.5392 105° East 138 159 11,600 -145 Level Miami Center
Fri 11:35:20 AM 27.0058 -78.4958 105° East 138 159 11,300 -290 Descending Miami Center
Fri 11:36:22 AM 26.9931 -78.4375 104° East 148 170 11,000 -387 Descending Miami Center
Fri 11:37:24 AM 26.9797 -78.3853 106° East 164 189 10,500 -435 Descending Miami Center
Fri 11:38:26 AM 26.9678 -78.3322 104° East 170 196 10,100 -387 Descending Miami Center
Fri 11:39:28 AM 26.9547 -78.2789 105° East 171 197 9,700 -435 Descending Miami Center
Fri 11:40:30 AM 26.9428 -78.2253 104° East 173 199 9,200 -435 Descending Miami Center
Fri 11:41:32 AM 26.9306 -78.1728 105° East 173 199 8,800 -432 Descending Miami Center
Fri 11:42:35 AM 26.9186 -78.1200 104° East 173 199 8,300 -476 Descending Miami Center

Login

Don't have an account? Register now (free) for customized features, flight alerts, and more!